Time;durP1;ratioP1;P1;durP2;ratioP2;P2;SDS_P1;SDS_P2;PMS_P1;PMS_P2;Temp;Humidity;BMP_temperature;BMP_pressure;BME280_temperature;BME280_humidity;BME280_pressure;Samples;Min_cycle;Max_cycle;Signal;HPM_P1;HPM_P2
2022/07/21 00:02:23;;;;;;;29.05;18.70;;;;;;;-145.69;100.00;71129.78;5068760;28;20712;-78
2022/07/21 00:04:49;;;;;;;26.33;16.67;;;;;;;-145.69;100.00;71123.81;5055914;28;20616;-78
2022/07/21 00:07:16;;;;;;;29.48;14.25;;;;;;;-145.69;100.00;71125.81;5056138;28;20203;-79
2022/07/21 00:09:42;;;;;;;20.80;13.23;;;;;;;-145.69;100.00;71135.75;5056157;28;20226;-78
2022/07/21 00:12:09;;;;;;;24.02;13.73;;;;;;;-145.69;100.00;71135.75;5056116;28;20654;-79
2022/07/21 00:14:35;;;;;;;21.67;12.90;;;;;;;-145.69;100.00;71135.75;5057551;28;20605;-79
2022/07/21 00:17:03;;;;;;;23.30;14.52;;;;;;;-145.69;100.00;71137.75;5075967;28;20224;-78
2022/07/21 00:19:30;;;;;;;21.85;14.63;;;;;;;-145.69;100.00;71143.72;5076059;28;20565;-79
2022/07/21 00:21:56;;;;;;;26.52;14.65;;;;;;;-145.69;100.00;71141.72;5076085;28;20202;-79
2022/07/21 00:24:23;;;;;;;29.60;16.17;;;;;;;-145.69;100.00;71147.69;5075505;28;20800;-79
2022/07/21 00:26:49;;;;;;;25.98;15.25;;;;;;;-145.69;100.00;71151.69;5075949;28;20203;-79
2022/07/21 00:29:16;;;;;;;22.67;14.23;;;;;;;-145.69;100.00;71159.63;5075515;28;20207;-78
2022/07/21 00:31:42;;;;;;;23.42;12.80;;;;;;;-145.69;100.00;71163.63;5075782;28;20202;-78
2022/07/21 00:34:10;;;;;;;22.42;12.25;;;;;;;-145.69;100.00;71161.63;5075867;28;20206;-78
2022/07/21 00:36:36;;;;;;;16.90;11.30;;;;;;;-145.69;100.00;71161.63;5075957;28;20198;-78
2022/07/21 00:39:03;;;;;;;17.92;10.98;;;;;;;-145.69;100.00;71167.59;5075753;28;20199;-79
2022/07/21 00:41:30;;;;;;;21.23;11.60;;;;;;;-145.69;100.00;71163.63;5075531;28;20230;-79
2022/07/21 00:43:56;;;;;;;20.00;12.15;;;;;;;-145.69;100.00;71155.66;5075348;28;20211;-79
2022/07/21 00:46:23;;;;;;;23.73;12.40;;;;;;;-145.69;100.00;71157.66;5075170;28;20201;-79
2022/07/21 00:48:49;;;;;;;19.83;12.07;;;;;;;-145.69;100.00;71147.69;5075418;28;20642;-79
2022/07/21 00:51:17;;;;;;;17.40;12.52;;;;;;;-145.69;100.00;71153.66;5075219;28;20700;-79
2022/07/21 00:53:44;;;;;;;18.00;12.00;;;;;;;-145.69;100.00;71159.63;5075407;28;20203;-79
2022/07/21 00:56:11;;;;;;;24.48;12.15;;;;;;;-145.69;100.00;71163.63;5075338;28;20584;-79
2022/07/21 00:58:37;;;;;;;19.27;12.70;;;;;;;-145.69;100.00;71163.63;5074934;28;20195;-79
2022/07/21 01:01:05;;;;;;;21.95;12.88;;;;;;;-145.69;100.00;71163.63;5075338;28;20223;-79
2022/07/21 01:03:31;;;;;;;16.75;12.35;;;;;;;-145.69;100.00;71167.59;5075391;28;20194;-79
2022/07/21 01:05:58;;;;;;;20.75;12.13;;;;;;;-145.69;100.00;71183.50;5075201;28;20199;-79
2022/07/21 01:08:27;;;;;;;15.43;10.98;;;;;;;-145.69;100.00;71187.50;5075322;28;20210;-79
2022/07/21 01:10:53;;;;;;;17.65;10.23;;;;;;;-145.69;100.00;71193.47;5074503;28;20191;-79
2022/07/21 01:13:20;;;;;;;20.05;12.50;;;;;;;-145.69;100.00;71195.47;5073475;28;20195;-79
2022/07/21 01:15:47;;;;;;;21.60;12.10;;;;;;;-145.69;100.00;71197.44;5074694;28;20209;-79
2022/07/21 01:18:13;;;;;;;21.08;12.15;;;;;;;-145.69;100.00;71193.47;5075004;28;20210;-80
2022/07/21 01:20:45;;;;;;;24.02;12.60;;;;;;;-145.69;100.00;71187.50;5074607;28;20236;-80
2022/07/21 01:23:13;;;;;;;20.92;12.60;;;;;;;-145.69;100.00;71187.50;5074232;28;20218;-79
2022/07/21 01:25:40;;;;;;;21.30;12.73;;;;;;;-145.69;100.00;71177.53;5074774;28;20562;-80
2022/07/21 01:28:06;;;;;;;22.67;13.27;;;;;;;-145.69;100.00;71179.53;5074868;28;20226;-80
2022/07/21 01:30:32;;;;;;;17.73;11.43;;;;;;;-145.69;100.00;71179.53;5074884;28;20222;-79
2022/07/21 01:32:59;;;;;;;18.77;12.52;;;;;;;-145.69;100.00;71171.56;5074622;28;20194;-79
2022/07/21 01:35:25;;;;;;;22.88;12.70;;;;;;;-145.69;100.00;71175.56;5074682;28;20202;-79
2022/07/21 01:37:52;;;;;;;21.67;12.13;;;;;;;-145.69;100.00;71185.50;5074596;28;20268;-79
2022/07/21 01:43:05;;;;;;;15.15;11.05;;;;;;;-145.69;100.00;71187.50;5073750;28;20296;-79
2022/07/21 01:45:32;;;;;;;19.02;12.40;;;;;;;-145.69;100.00;71179.53;5074527;28;20203;-79
2022/07/21 01:47:58;;;;;;;22.70;13.35;;;;;;;-145.69;100.00;71171.56;5074406;28;20202;-79
2022/07/21 01:50:27;;;;;;;20.23;12.57;;;;;;;-145.69;100.00;71173.56;5074030;28;20612;-79
2022/07/21 01:52:55;;;;;;;19.08;12.75;;;;;;;-145.69;100.00;71171.56;5074150;28;20352;-80
2022/07/21 01:55:23;;;;;;;20.13;11.50;;;;;;;-145.69;100.00;71179.53;5074245;28;20234;-79
2022/07/21 01:57:49;;;;;;;19.38;13.02;;;;;;;-145.69;100.00;71175.56;5074311;28;20202;-79
2022/07/21 02:00:16;;;;;;;21.88;12.32;;;;;;;-145.69;100.00;71177.53;5071971;28;20203;-80
2022/07/21 02:02:43;;;;;;;20.73;12.52;;;;;;;-145.69;100.00;71175.56;5073170;28;20653;-79
2022/07/21 02:05:10;;;;;;;18.45;12.68;;;;;;;-145.69;100.00;71175.56;5073924;28;20202;-79
2022/07/21 02:07:36;;;;;;;19.15;12.00;;;;;;;-145.69;100.00;71171.56;5074080;28;20218;-79
2022/07/21 02:10:03;;;;;;;18.88;12.38;;;;;;;-145.69;100.00;71171.56;5073738;28;20199;-79
2022/07/21 02:12:31;;;;;;;24.08;13.63;;;;;;;-145.69;100.00;71153.66;5073760;28;20203;-79
2022/07/21 02:14:57;;;;;;;21.60;13.90;;;;;;;-145.69;100.00;71153.66;5073861;28;20225;-78
2022/07/21 02:17:24;;;;;;;23.05;13.73;;;;;;;-145.69;100.00;71159.63;5073758;28;20198;-79
2022/07/21 02:19:50;;;;;;;22.60;14.48;;;;;;;-145.69;100.00;71165.59;5073564;28;20646;-78
2022/07/21 02:22:16;;;;;;;21.05;13.48;;;;;;;-145.69;100.00;71159.63;5073782;28;20230;-79
2022/07/21 02:24:43;;;;;;;20.77;14.05;;;;;;;-145.69;100.00;71161.63;5073571;28;20202;-79
2022/07/21 02:27:09;;;;;;;19.83;12.85;;;;;;;-145.69;100.00;71167.59;5073697;28;20206;-79
2022/07/21 02:29:37;;;;;;;23.40;14.25;;;;;;;-145.69;100.00;71167.59;5073660;28;20213;-78
2022/07/21 02:32:04;;;;;;;22.65;14.02;;;;;;;-145.69;100.00;71169.59;5073494;28;20194;-79
2022/07/21 02:34:31;;;;;;;23.08;14.13;;;;;;;-145.69;100.00;71171.56;5072985;28;20199;-79
2022/07/21 02:36:57;;;;;;;24.52;13.68;;;;;;;-145.69;100.00;71175.56;5073600;28;20228;-79
2022/07/21 02:39:25;;;;;;;24.25;13.65;;;;;;;-145.69;100.00;71187.50;5073472;28;20199;-79
2022/07/21 02:41:52;;;;;;;25.90;15.25;;;;;;;-145.69;100.00;71177.53;5073349;28;20233;-80
2022/07/21 02:44:18;;;;;;;21.75;13.57;;;;;;;-145.69;100.00;71181.53;5073276;28;20203;-78
2022/07/21 02:46:46;;;;;;;23.13;13.85;;;;;;;-145.69;100.00;71181.53;5073277;28;20202;-78
2022/07/21 02:49:12;;;;;;;22.38;14.38;;;;;;;-145.69;100.00;71181.53;5072915;28;20209;-78
2022/07/21 02:51:39;;;;;;;31.35;15.27;;;;;;;-145.69;100.00;71183.50;5073141;28;20203;-78
2022/07/21 02:54:05;;;;;;;18.85;12.95;;;;;;;-145.69;100.00;71187.50;5072908;28;20214;-79
2022/07/21 02:56:32;;;;;;;26.85;15.68;;;;;;;-145.69;100.00;71185.50;5073387;28;20197;-79
2022/07/21 02:58:58;;;;;;;18.42;13.13;;;;;;;-145.69;100.00;71179.53;5073267;28;20199;-79
2022/07/21 03:01:24;;;;;;;22.27;14.60;;;;;;;-145.69;100.00;71179.53;5072545;28;20605;-79
2022/07/21 03:03:52;;;;;;;24.13;13.90;;;;;;;-145.69;100.00;71191.47;5072742;28;20202;-79
2022/07/21 03:06:19;;;;;;;24.08;13.98;;;;;;;-145.69;100.00;71187.50;5073199;28;20222;-79
2022/07/21 03:08:45;;;;;;;20.13;13.60;;;;;;;-145.69;100.00;71187.50;5073016;28;20210;-79
2022/07/21 03:11:11;;;;;;;25.67;16.63;;;;;;;-145.69;100.00;71173.56;5072776;28;20202;-79
2022/07/21 03:13:38;;;;;;;23.25;15.65;;;;;;;-145.69;100.00;71173.56;5072771;28;20653;-79
2022/07/21 03:16:05;;;;;;;23.50;15.82;;;;;;;-145.69;100.00;71179.53;5072855;28;20199;-79
2022/07/21 03:18:31;;;;;;;26.15;15.98;;;;;;;-145.69;100.00;71179.53;5073106;28;20198;-79
2022/07/21 03:20:59;;;;;;;23.95;16.08;;;;;;;-145.69;100.00;71175.56;5072887;28;20226;-79
2022/07/21 03:23:25;;;;;;;27.63;16.02;;;;;;;-145.69;100.00;71167.59;5073235;28;20207;-79
2022/07/21 03:25:52;;;;;;;24.95;16.60;;;;;;;-145.69;100.00;71167.59;5072942;28;20209;-79
2022/07/21 03:28:18;;;;;;;29.60;17.38;;;;;;;-145.69;100.00;71167.59;5072888;28;20199;-79
2022/07/21 03:30:45;;;;;;;29.48;16.85;;;;;;;-145.69;100.00;71171.56;5072815;28;20198;-79
2022/07/21 03:33:11;;;;;;;27.63;16.50;;;;;;;-145.69;100.00;71175.56;5072959;28;20198;-79
2022/07/21 03:35:38;;;;;;;26.50;16.75;;;;;;;-145.69;100.00;71175.56;5074151;28;20199;-79
2022/07/21 03:38:06;;;;;;;28.40;18.15;;;;;;;-145.69;100.00;71175.56;5076760;28;20434;-79
2022/07/21 03:40:35;;;;;;;31.13;16.48;;;;;;;-145.69;100.00;71179.53;5076302;28;20657;-79
2022/07/21 03:43:03;;;;;;;22.90;15.23;;;;;;;-145.69;100.00;71189.47;5076793;28;20568;-79
2022/07/21 03:45:31;;;;;;;22.55;14.65;;;;;;;-145.69;100.00;71185.50;5076564;28;20198;-79
2022/07/21 03:47:58;;;;;;;26.55;16.85;;;;;;;-145.69;100.00;71189.47;5076775;28;20198;-79
2022/07/21 03:50:25;;;;;;;21.80;15.07;;;;;;;-145.69;100.00;71185.50;5076544;28;20230;-79
2022/07/21 03:52:52;;;;;;;24.60;15.13;;;;;;;-145.69;100.00;71189.47;5076736;28;20202;-79
2022/07/21 03:55:20;;;;;;;28.33;15.52;;;;;;;-145.69;100.00;71187.50;5076415;28;20218;-79
2022/07/21 03:57:50;;;;;;;28.35;17.42;;;;;;;-145.69;100.00;71191.47;5075800;28;20202;-80
2022/07/21 04:00:19;;;;;;;31.25;19.75;;;;;;;-145.69;100.00;71183.50;5076601;28;20195;-79
2022/07/21 04:02:46;;;;;;;38.50;19.48;;;;;;;-145.69;100.00;71189.47;5076330;28;20234;-79
2022/07/21 04:05:13;;;;;;;38.28;20.60;;;;;;;-145.69;100.00;71187.50;5076440;28;20250;-79
2022/07/21 04:07:41;;;;;;;34.45;20.98;;;;;;;-145.69;100.00;71183.50;5067065;28;20257;-79
2022/07/21 04:10:09;;;;;;;36.92;20.67;;;;;;;-145.69;100.00;71183.50;5075673;28;20249;-79
2022/07/21 04:12:37;;;;;;;34.83;20.10;;;;;;;-145.69;100.00;71187.50;5076039;28;20237;-79
2022/07/21 04:15:04;;;;;;;36.60;23.95;;;;;;;-145.69;100.00;71191.47;5075169;28;20430;-79
2022/07/21 04:17:30;;;;;;;37.15;20.88;;;;;;;-145.69;100.00;71187.50;5076291;28;20201;-79
2022/07/21 04:19:57;;;;;;;34.95;21.00;;;;;;;-145.69;100.00;71183.50;5075841;28;20195;-79
2022/07/21 04:22:23;;;;;;;31.50;20.40;;;;;;;-145.69;100.00;71181.53;5075787;28;20228;-79
2022/07/21 04:24:50;;;;;;;36.65;23.35;;;;;;;-145.69;100.00;71191.47;5074649;28;20434;-79
2022/07/21 04:27:16;;;;;;;33.15;19.38;;;;;;;-145.69;100.00;71199.44;5075895;28;20671;-79
2022/07/21 04:29:44;;;;;;;34.45;19.00;;;;;;;-145.69;100.00;71193.47;5075840;28;20202;-79
2022/07/21 04:32:10;;;;;;;33.00;20.23;;;;;;;-145.69;100.00;71195.47;5075998;28;20203;-80
2022/07/21 04:34:37;;;;;;;33.15;20.45;;;;;;;-145.69;100.00;71195.47;5075535;28;20203;-79
2022/07/21 04:37:03;;;;;;;36.95;21.08;;;;;;;-145.69;100.00;71201.41;5075866;28;20281;-79
2022/07/21 04:39:30;;;;;;;34.47;20.38;;;;;;;-145.69;100.00;71207.38;5075148;28;20190;-79
2022/07/21 04:41:56;;;;;;;28.92;19.52;;;;;;;-145.69;100.00;71201.41;5075513;28;20234;-80
2022/07/21 04:44:23;;;;;;;30.67;18.70;;;;;;;-145.69;100.00;71191.47;5075580;28;20207;-80
2022/07/21 04:46:51;;;;;;;31.20;20.23;;;;;;;-145.69;100.00;71191.47;5074971;28;20199;-79
2022/07/21 04:49:17;;;;;;;30.73;19.02;;;;;;;-145.69;100.00;71195.47;5075162;28;20202;-79
2022/07/21 04:51:44;;;;;;;28.05;18.58;;;;;;;-145.69;100.00;71203.41;5075517;28;20202;-79
2022/07/21 04:54:13;;;;;;;31.15;18.90;;;;;;;-145.69;100.00;71211.38;5075306;28;20696;-80
2022/07/21 04:56:40;;;;;;;26.58;17.10;;;;;;;-145.69;100.00;71223.31;5075517;28;20218;-80
2022/07/21 04:59:06;;;;;;;37.22;18.13;;;;;;;-145.69;100.00;71213.38;5075510;28;20237;-79
2022/07/21 05:01:33;;;;;;;25.92;17.45;;;;;;;-145.69;100.00;71211.38;5075256;28;20223;-80
2022/07/21 05:04:00;;;;;;;26.02;16.50;;;;;;;-145.69;100.00;71187.50;5075278;28;20198;-80
2022/07/21 05:06:27;;;;;;;25.58;16.20;;;;;;;-145.69;100.00;71165.59;5075166;28;20565;-79
2022/07/21 05:08:53;;;;;;;25.20;14.52;;;;;;;-145.69;100.00;71141.72;5074957;28;20225;-79
2022/07/21 05:11:20;;;;;;;23.85;14.80;;;;;;;-145.69;100.00;71145.72;5074090;28;20211;-79
2022/07/21 05:13:46;;;;;;;22.05;14.55;;;;;;;-145.69;100.00;71147.69;5074582;28;20661;-78
2022/07/21 05:16:13;;;;;;;20.70;14.38;;;;;;;-145.69;100.00;71139.75;5075141;28;20201;-79
2022/07/21 05:18:39;;;;;;;18.30;12.82;;;;;;;-145.69;100.00;71145.72;5075052;28;20562;-79
2022/07/21 05:21:07;;;;;;;20.42;13.10;;;;;;;-145.69;100.00;71135.75;5074807;28;20206;-78
2022/07/21 05:23:34;;;;;;;24.55;13.77;;;;;;;-145.69;100.00;71129.78;5075101;28;20279;-78
2022/07/21 05:26:00;;;;;;;21.88;13.93;;;;;;;-145.69;100.00;71135.75;5075005;28;20205;-79
2022/07/21 05:28:28;;;;;;;20.50;12.73;;;;;;;-145.69;100.00;71127.81;5073888;28;20202;-79
2022/07/21 05:30:55;;;;;;;21.67;12.40;;;;;;;-145.69;100.00;71127.81;5072787;28;20195;-79
2022/07/21 05:33:21;;;;;;;21.08;13.75;;;;;;;-145.69;100.00;71123.81;5072755;28;20561;-79
2022/07/21 05:35:48;;;;;;;18.38;10.85;;;;;;;-145.69;100.00;71109.91;5072502;28;20198;-78
2022/07/21 05:38:15;;;;;;;24.52;13.85;;;;;;;-145.69;100.00;71097.97;5072472;28;20198;-79
2022/07/21 05:40:42;;;;;;;23.45;12.90;;;;;;;-145.69;100.00;71068.13;5073317;28;20199;-79
2022/07/21 05:43:08;;;;;;;22.48;13.38;;;;;;;-145.69;100.00;71078.06;5073032;28;20230;-79
2022/07/21 05:45:35;;;;;;;17.33;11.52;;;;;;;-145.69;100.00;71064.13;5074457;28;20653;-79
2022/07/21 05:48:01;;;;;;;29.35;13.02;;;;;;;-145.69;100.00;71060.16;5074482;28;20206;-78
2022/07/21 05:50:27;;;;;;;18.45;11.93;;;;;;;-145.69;100.00;71056.16;5074083;28;20697;-79
2022/07/21 05:52:54;;;;;;;16.08;10.70;;;;;;;-145.69;100.00;71060.16;5074237;28;20198;-79
2022/07/21 05:55:22;;;;;;;16.60;11.88;;;;;;;-145.69;100.00;71084.03;5074382;28;20199;-79
2022/07/21 05:57:48;;;;;;;18.58;12.23;;;;;;;-145.69;100.00;71097.97;5073817;28;20214;-80
2022/07/21 06:00:16;;;;;;;18.35;11.85;;;;;;;-145.69;100.00;71111.88;5072209;28;20206;-79
2022/07/21 06:02:42;;;;;;;17.08;11.07;;;;;;;-145.69;100.00;71084.03;5071829;28;20222;-79
2022/07/21 06:05:10;;;;;;;15.27;11.00;;;;;;;-145.69;100.00;71060.16;5074397;28;20205;-79
2022/07/21 06:07:37;;;;;;;16.20;10.70;;;;;;;-145.69;100.00;71054.19;5073600;28;20604;-79
2022/07/21 06:10:04;;;;;;;15.77;11.40;;;;;;;-145.69;100.00;71072.09;5074072;28;20195;-79
2022/07/21 06:12:32;;;;;;;16.75;9.63;;;;;;;-145.69;100.00;71050.22;5073941;28;20680;-79
2022/07/21 06:14:58;;;;;;;14.35;9.55;;;;;;;-145.69;100.00;71022.34;5073825;28;20202;-79
2022/07/21 06:17:24;;;;;;;14.00;9.07;;;;;;;-145.69;100.00;70972.59;5073754;28;20221;-79
2022/07/21 06:19:51;;;;;;;12.82;7.95;;;;;;;-145.69;100.00;70954.69;5073873;28;20222;-79
2022/07/21 06:22:17;;;;;;;14.98;8.85;;;;;;;-145.69;100.00;71004.44;5073585;28;20835;-79
2022/07/21 06:24:44;;;;;;;15.63;9.23;;;;;;;-145.69;100.00;71040.25;5073834;28;20202;-79
2022/07/21 06:27:10;;;;;;;13.43;8.57;;;;;;;-145.69;100.00;71044.22;5073609;28;20201;-79
2022/07/21 06:29:38;;;;;;;13.63;8.00;;;;;;;-145.69;100.00;71052.19;5074129;28;20199;-80
2022/07/21 06:32:05;;;;;;;10.27;7.32;;;;;;;-145.69;100.00;71024.34;5073419;28;20680;-79
2022/07/21 06:34:31;;;;;;;12.63;8.20;;;;;;;-145.69;100.00;71052.19;5073670;28;20199;-79
2022/07/21 06:36:58;;;;;;;14.85;9.90;;;;;;;-145.69;100.00;71032.28;5071273;28;20453;-80
2022/07/21 06:39:24;;;;;;;11.80;8.48;;;;;;;-145.69;100.00;70980.56;5072136;28;20199;-79
2022/07/21 06:41:51;;;;;;;11.18;8.32;;;;;;;-145.69;100.00;71024.34;5072701;28;20226;-79
2022/07/21 06:44:17;;;;;;;12.93;8.02;;;;;;;-145.69;100.00;71032.28;5073133;28;20308;-79
2022/07/21 06:46:45;;;;;;;12.90;9.23;;;;;;;-145.69;100.00;71044.22;5072367;28;20430;-79
2022/07/21 06:49:11;;;;;;;13.27;8.88;;;;;;;-145.69;100.00;71024.34;5073118;28;20215;-79
2022/07/21 06:51:38;;;;;;;12.57;7.88;;;;;;;-145.69;100.00;70980.56;5073317;28;20198;-79
2022/07/21 06:54:04;;;;;;;15.35;8.32;;;;;;;-145.69;100.00;70922.88;5072982;28;20202;-79
2022/07/21 06:56:31;;;;;;;14.60;8.82;;;;;;;-145.69;100.00;70889.03;5073093;28;20198;-80
2022/07/21 06:58:57;;;;;;;15.50;7.90;;;;;;;-145.69;100.00;70897.00;5073022;28;20399;-80
2022/07/21 07:01:24;;;;;;;16.33;8.43;;;;;;;-145.69;100.00;70924.84;5073475;28;20201;-79
2022/07/21 07:03:51;;;;;;;12.38;7.22;;;;;;;-145.69;100.00;70942.75;5073187;28;20226;-79
2022/07/21 07:06:18;;;;;;;15.90;8.10;;;;;;;-145.69;100.00;70940.78;5069948;28;20202;-79
2022/07/21 07:08:44;;;;;;;11.63;7.85;;;;;;;-145.69;100.00;70940.78;5071676;28;20206;-79
2022/07/21 07:11:11;;;;;;;13.73;7.78;;;;;;;-145.69;100.00;70940.78;5071868;28;20191;-80
2022/07/21 07:13:37;;;;;;;11.68;7.93;;;;;;;-145.69;100.00;70964.66;5072892;28;20203;-79
2022/07/21 07:16:04;;;;;;;13.77;8.20;;;;;;;-145.69;100.00;70964.66;5072796;28;20194;-79
2022/07/21 07:18:31;;;;;;;15.77;7.72;;;;;;;-145.69;100.00;70926.84;5073244;28;20198;-80
2022/07/21 07:20:58;;;;;;;20.15;8.23;;;;;;;-145.69;100.00;70940.78;5072981;28;20294;-80
2022/07/21 07:23:25;;;;;;;13.15;8.32;;;;;;;-145.69;100.00;70932.81;5071648;28;20246;-79
2022/07/21 07:25:51;;;;;;;12.73;8.35;;;;;;;-145.69;100.00;70946.75;5072636;28;20199;-80
2022/07/21 07:28:18;;;;;;;13.82;8.18;;;;;;;-145.69;100.00;70936.78;5072589;28;20203;-80
2022/07/21 07:30:44;;;;;;;14.02;8.48;;;;;;;-145.69;100.00;70916.91;5073296;28;20209;-81
2022/07/21 07:33:11;;;;;;;12.07;7.38;;;;;;;-145.69;99.37;70835.31;5072686;28;20209;-81
2022/07/21 07:35:37;;;;;;;12.30;8.15;;;;;;;-145.69;98.03;70749.78;5072911;28;20207;-80
2022/07/21 07:38:05;;;;;;;16.88;7.85;;;;;;;-145.69;100.00;70694.06;5072403;28;20207;-81
2022/07/21 07:40:32;;;;;;;13.23;8.30;;;;;;;-145.69;94.42;70610.50;5071795;28;20657;-78
2022/07/21 07:42:58;;;;;;;11.63;6.93;;;;;;;-145.69;78.43;70626.41;5072384;28;20601;-80
2022/07/21 07:45:26;;;;;;;12.43;7.55;;;;;;;-145.69;84.31;70733.84;5072679;28;20664;-81
2022/07/21 07:47:53;;;;;;;14.25;7.85;;;;;;;-145.69;90.57;70745.78;5072382;28;20206;-81
2022/07/21 07:50:19;;;;;;;12.70;8.15;;;;;;;-145.69;95.02;70875.13;5072394;28;20252;-80
2022/07/21 07:52:46;;;;;;;14.23;7.90;;;;;;;-145.69;98.24;70920.88;5072709;28;20244;-81
2022/07/21 07:55:15;;;;;;;12.18;7.32;;;;;;;-145.69;94.66;70904.97;5072463;28;20206;-80
2022/07/21 07:57:46;;;;;;;14.25;8.27;;;;;;;-145.69;94.57;70881.09;5055079;28;20933;-80
2022/07/21 08:00:17;;;;;;;17.38;8.70;;;;;;;-145.69;92.87;70893.03;5054018;28;20220;-81
2022/07/21 08:02:49;;;;;;;15.52;7.72;;;;;;;-145.69;92.51;70849.25;5071987;28;20222;-81
2022/07/21 08:05:19;;;;;;;13.20;7.80;;;;;;;-145.69;88.38;70747.78;5071500;28;20745;-80
2022/07/21 08:07:49;;;;;;;11.82;7.63;;;;;;;-145.69;89.74;70666.22;5072092;28;20206;-80
2022/07/21 08:10:17;;;;;;;13.43;7.47;;;;;;;-145.69;77.89;70608.53;5072500;28;20234;-80
2022/07/21 08:12:43;;;;;;;15.43;8.48;;;;;;;-145.69;77.92;70652.28;5072305;28;20222;-81
2022/07/21 08:15:12;;;;;;;13.10;7.63;;;;;;;-145.69;86.41;70658.25;5071919;28;20206;-81
2022/07/21 08:17:39;;;;;;;12.52;7.95;;;;;;;-145.69;79.54;70688.09;5071257;28;20203;-81
2022/07/21 08:20:06;;;;;;;12.45;8.00;;;;;;;-145.69;81.47;70737.84;5072106;28;20210;-81
2022/07/21 08:22:33;;;;;;;12.45;8.45;;;;;;;-145.69;87.04;70789.56;5070991;28;20837;-81
2022/07/21 08:24:59;;;;;;;14.20;7.75;;;;;;;-145.69;88.45;70821.41;5075893;28;20202;-81
2022/07/21 08:27:27;;;;;;;12.30;7.43;;;;;;;-145.69;83.64;70777.63;5076024;28;20199;-80
2022/07/21 08:29:53;;;;;;;13.00;8.60;;;;;;;-145.69;81.17;70783.59;5076033;28;20226;-81
2022/07/21 08:32:20;;;;;;;11.82;8.10;;;;;;;-145.69;83.09;70781.59;5075895;28;20207;-81
2022/07/21 08:34:47;;;;;;;13.30;7.72;;;;;;;-145.69;83.10;70721.91;5075529;28;20225;-80
2022/07/21 08:37:13;;;;;;;14.55;8.50;;;;;;;-145.69;79.91;70682.13;5075480;28;20554;-81
2022/07/21 08:39:40;;;;;;;13.13;7.45;;;;;;;-145.69;80.76;70709.97;5075745;28;20195;-79
2022/07/21 08:42:08;;;;;;;12.88;7.10;;;;;;;-145.69;84.98;70745.78;5075859;28;20201;-79
2022/07/21 08:44:37;;;;;;;14.63;7.32;;;;;;;-145.69;84.14;70721.91;5075552;28;20649;-79
2022/07/21 08:47:07;;;;;;;12.80;8.10;;;;;;;-145.69;86.91;70801.50;5075634;28;20281;-79
2022/07/21 08:49:35;;;;;;;13.18;8.02;;;;;;;-145.69;83.63;70831.34;5075264;28;20775;-80
2022/07/21 08:52:02;;;;;;;13.05;7.60;;;;;;;-145.69;86.37;70821.41;5075270;28;20191;-79
2022/07/21 08:54:29;;;;;;;14.88;7.13;;;;;;;-145.69;82.37;70795.53;5075444;28;20245;-79
2022/07/21 08:56:55;;;;;;;11.70;7.40;;;;;;;-145.69;83.08;70759.72;5075308;28;20199;-79
2022/07/21 08:59:23;;;;;;;11.63;7.38;;;;;;;-145.69;81.93;70735.84;5075293;28;20203;-79
2022/07/21 09:01:51;;;;;;;14.32;7.15;;;;;;;-145.69;77.49;70757.72;5074939;28;20226;-78
2022/07/21 09:04:25;;;;;;;10.93;6.68;;;;;;;-145.69;82.35;70702.03;5075106;28;20230;-79
2022/07/21 09:06:54;;;;;;;16.27;6.72;;;;;;;-145.69;82.21;70680.13;5075421;28;20571;-79
2022/07/21 09:09:22;;;;;;;12.48;6.03;;;;;;;-145.69;78.47;70626.41;5075114;28;20644;-78
2022/07/21 09:11:49;;;;;;;17.10;6.95;;;;;;;-145.69;77.71;70654.28;5075109;28;20206;-79
2022/07/21 09:14:21;;;;;;;12.07;6.95;;;;;;;-145.69;80.59;70644.31;5075098;28;20202;-78
2022/07/21 09:16:52;;;;;;;11.45;6.15;;;;;;;-145.69;72.95;70690.09;5075367;28;20222;-78
2022/07/21 09:19:23;;;;;;;7.68;5.28;;;;;;;-145.69;76.91;70670.19;5075007;28;20806;-79
2022/07/21 09:21:50;;;;;;;10.48;5.80;;;;;;;-145.69;74.97;70634.38;5074892;28;20210;-79
2022/07/21 09:24:25;;;;;;;10.85;6.10;;;;;;;-145.69;73.65;70574.69;5072580;28;20225;-79
2022/07/21 09:27:05;;;;;;;7.20;5.85;;;;;;;-145.69;70.80;70558.78;5074659;28;20284;-79
2022/07/21 09:29:37;;;;;;;11.02;6.55;;;;;;;-145.69;65.55;70540.88;5074144;28;20201;-80
2022/07/21 09:32:22;;;;;;;12.95;5.75;;;;;;;-145.69;70.13;70503.06;5074099;28;20688;-79
2022/07/21 09:34:51;;;;;;;11.10;5.65;;;;;;;-145.69;67.21;70495.13;5073844;28;20202;-79
2022/07/21 09:37:19;;;;;;;10.75;6.32;;;;;;;-145.69;67.30;70485.16;5073747;28;20198;-80
2022/07/21 09:39:48;;;;;;;10.50;6.35;;;;;;;-145.69;68.50;70524.97;5074240;28;20202;-80
2022/07/21 09:42:20;;;;;;;10.32;6.60;;;;;;;-145.69;63.14;70469.25;5074289;28;20213;-81
2022/07/21 09:44:49;;;;;;;12.55;6.30;;;;;;;-145.69;64.52;70455.34;5074644;28;20233;-80
2022/07/21 09:47:17;;;;;;;11.10;6.85;;;;;;;-145.69;65.24;70467.28;5074191;28;20744;-80
2022/07/21 09:49:44;;;;;;;9.95;5.13;;;;;;;-145.69;65.37;70511.03;5070008;28;20276;-80
2022/07/21 09:52:42;;;;;;;;;;;;;;;;;;;;;
2022/07/21 09:55:11;;;;;;;9.88;5.50;;;;;;;-145.69;66.50;70534.91;5071210;28;20213;-81
2022/07/21 09:57:38;;;;;;;10.68;6.13;;;;;;;-145.69;66.97;70586.63;5072696;28;20199;-80
2022/07/21 10:00:07;;;;;;;8.38;5.60;;;;;;;-145.69;68.39;70634.38;5074296;28;20206;-80
2022/07/21 10:02:34;;;;;;;7.72;5.20;;;;;;;-145.69;68.99;70578.69;5073952;28;20210;-80
2022/07/21 10:05:05;;;;;;;9.07;4.95;;;;;;;-145.69;70.48;70578.69;5074170;28;20206;-79
2022/07/21 10:07:36;;;;;;;11.80;5.53;;;;;;;-145.69;66.89;70630.41;5074324;28;20198;-80
2022/07/21 10:10:03;;;;;;;9.55;5.65;;;;;;;-145.69;71.29;70606.53;5073322;28;20437;-80
2022/07/21 10:12:30;;;;;;;9.43;5.13;;;;;;;-145.69;66.60;70564.75;5073160;28;20669;-81
2022/07/21 10:14:57;;;;;;;7.10;4.72;;;;;;;-145.69;65.53;70522.97;5073371;28;20203;-81
2022/07/21 10:17:25;;;;;;;7.68;4.82;;;;;;;-145.69;63.05;70570.72;5073432;28;20199;-79
2022/07/21 10:20:05;;;;;;;6.60;4.28;;;;;;;-145.69;59.99;70600.56;5073146;28;20203;-79
2022/07/21 10:22:44;;;;;;;6.28;4.43;;;;;;;-145.69;59.49;70576.69;5072574;28;20199;-80
2022/07/21 10:25:13;;;;;;;7.07;3.83;;;;;;;-145.69;60.96;70524.97;5068846;28;20203;-80
2022/07/21 10:27:39;;;;;;;9.57;3.88;;;;;;;-145.69;60.41;70415.53;5073442;28;20597;-80
2022/07/21 10:30:07;;;;;;;6.60;4.00;;;;;;;-145.69;57.09;70395.66;5073382;28;20198;-81
2022/07/21 10:32:36;;;;;;;7.20;4.38;;;;;;;-145.69;56.81;70415.53;5073580;28;20205;-81
2022/07/21 10:35:28;;;;;;;6.43;3.70;;;;;;;-145.69;52.14;70419.53;5073307;28;20210;-82
2022/07/21 10:37:56;;;;;;;6.18;4.20;;;;;;;-145.69;54.99;70489.16;5073375;28;20565;-81
2022/07/21 10:40:39;;;;;;;7.88;3.95;;;;;;;-145.69;56.10;70463.28;5073766;28;20199;-82
2022/07/21 10:43:40;;;;;;;6.05;3.58;;;;;;;-145.69;57.82;70532.91;5072990;28;20231;-81
2022/07/21 10:46:38;;;;;;;5.43;3.78;;;;;;;-145.69;56.65;70558.78;5072857;28;20553;-81
2022/07/21 10:49:06;;;;;;;6.88;3.88;;;;;;;-145.69;56.98;70538.88;5060741;28;20198;-81
2022/07/21 10:51:35;;;;;;;6.57;3.88;;;;;;;-145.69;55.72;70507.06;5073107;28;20684;-81
2022/07/21 10:54:25;;;;;;;6.70;3.60;;;;;;;-145.69;54.19;70467.28;5073466;28;20227;-80
2022/07/21 10:57:29;;;;;;;7.82;3.97;;;;;;;-145.69;56.95;70534.91;5073535;28;20533;-81
2022/07/21 11:00:16;;;;;;;7.70;3.80;;;;;;;-145.69;58.33;70554.81;5073229;28;20206;-81
2022/07/21 11:02:43;;;;;;;5.43;3.97;;;;;;;-145.69;59.34;70542.88;5075177;28;20203;-82
2022/07/21 11:05:10;;;;;;;5.88;3.72;;;;;;;-145.69;59.38;70554.81;5074267;28;20262;-80
2022/07/21 11:08:09;;;;;;;9.45;4.10;;;;;;;-145.69;62.31;70519.00;5073348;28;20198;-82
2022/07/21 11:10:38;;;;;;;5.75;3.30;;;;;;;-145.69;59.01;70421.50;5073160;28;20198;-82